FOOG

Port Gentil Airport

Port Gentil, Gabon
METAR FOOG 172300Z 21010KT 9999 SCT008 BKN030 24/22 Q1014
Observed Flight Rules
Aug-17 @ 23:00 UTC (3 hours ago) Marginal Visual Flight Rules
Wind Visibility Clouds
210° at 10 knots 10,000+ meters
  • Scattered at 800' AGL
  • Broken at 3,000' AGL
Temperatures Readings
Current 24°C / 75°F
Dewpoint 22°C / 72°F
Humidity 89%
Altimeter 29.94" Hg
Pressure 1014 hPa
Elevation 4
METAR FOOG 172300Z 21010KT 9999 SCT008 BKN030 24/22 Q1014
Observed Flight Rules
Aug-17 @ 23:00 UTC
(3 hours ago)
MVFR
Wind Visibility
210° at 10 knots 10,000+ meters
Clouds
  • Scattered at 800' AGL
  • Broken at 3,000' AGL
Temperature Dewpoint
24°C / 75°F 22°C / 72°F
Humidity Altimeter Pressure
89% 29.94" Hg 1014 hPa